createdAt,value
2017-06-19T00:01:15.476Z,0
2017-06-19T00:03:16.948Z,0
2017-06-19T00:05:18.399Z,0
2017-06-19T00:07:19.852Z,0
2017-06-19T00:09:21.324Z,0
2017-06-19T00:11:22.778Z,0
2017-06-19T00:13:24.252Z,0
2017-06-19T00:15:25.707Z,0
2017-06-19T00:17:27.164Z,0
2017-06-19T00:19:28.633Z,0
2017-06-19T00:21:30.084Z,0
2017-06-19T00:23:31.532Z,0
2017-06-19T00:25:33.005Z,0
2017-06-19T00:27:34.451Z,0
2017-06-19T00:29:35.922Z,0
2017-06-19T00:31:37.367Z,0
2017-06-19T00:33:38.815Z,0
2017-06-19T00:35:40.291Z,0
2017-06-19T00:37:41.733Z,0
2017-06-19T00:39:43.206Z,0
2017-06-19T00:41:44.652Z,0
2017-06-19T00:43:46.102Z,0
2017-06-19T00:45:47.573Z,0
2017-06-19T00:47:49.024Z,0
2017-06-19T00:49:50.501Z,0
2017-06-19T00:51:51.945Z,0
2017-06-19T00:53:53.391Z,0
2017-06-19T00:55:54.867Z,0
2017-06-19T00:57:56.313Z,0
2017-06-19T00:59:57.759Z,0
2017-06-19T01:01:59.232Z,0
2017-06-19T01:04:00.681Z,0
2017-06-19T01:06:02.153Z,0
2017-06-19T01:08:03.605Z,0
2017-06-19T01:10:05.052Z,0
2017-06-19T01:12:06.520Z,0
2017-06-19T01:14:08.007Z,0
2017-06-19T01:16:09.460Z,0
2017-06-19T01:18:10.939Z,0
2017-06-19T01:20:12.382Z,0
2017-06-19T01:22:13.858Z,0
2017-06-19T01:24:15.303Z,0
2017-06-19T01:26:16.748Z,0
2017-06-19T01:28:18.225Z,0
2017-06-19T01:30:19.674Z,0
2017-06-19T01:32:21.155Z,0
2017-06-19T01:34:22.608Z,0
2017-06-19T01:36:24.058Z,0
2017-06-19T01:38:25.528Z,0
2017-06-19T01:40:26.974Z,0
2017-06-19T01:42:28.422Z,0
2017-06-19T01:44:29.894Z,0
2017-06-19T01:46:31.345Z,0
2017-06-19T01:48:32.820Z,0
2017-06-19T01:50:34.265Z,0
2017-06-19T01:52:35.711Z,0
2017-06-19T01:54:37.185Z,0
2017-06-19T01:56:38.631Z,0
2017-06-19T01:58:40.091Z,0
2017-06-19T02:00:41.569Z,0
2017-06-19T02:02:43.016Z,0
2017-06-19T02:04:44.484Z,0
2017-06-19T02:06:45.935Z,0
2017-06-19T02:08:47.381Z,0
2017-06-19T02:10:48.851Z,0
2017-06-19T02:12:50.301Z,0
2017-06-19T02:14:51.783Z,0
2017-06-19T02:16:53.230Z,0
2017-06-19T02:18:54.671Z,0
2017-06-19T02:20:56.146Z,0
2017-06-19T02:22:57.589Z,0
2017-06-19T02:24:59.035Z,0
2017-06-19T02:27:00.507Z,0
2017-06-19T02:29:01.953Z,0
2017-06-19T02:31:03.423Z,0
2017-06-19T02:33:04.868Z,0
2017-06-19T02:35:06.315Z,0
2017-06-19T02:37:07.802Z,0
2017-06-19T02:39:09.257Z,0
2017-06-19T02:41:10.733Z,0
2017-06-19T02:43:12.178Z,0
2017-06-19T02:45:13.620Z,0
2017-06-19T02:47:15.090Z,0
2017-06-19T02:49:16.537Z,0
2017-06-19T02:51:17.981Z,0
2017-06-19T02:53:19.451Z,0
2017-06-19T02:55:20.910Z,0
2017-06-19T02:57:22.387Z,0
2017-06-19T02:59:23.832Z,0
2017-06-19T03:01:25.283Z,0
2017-06-19T03:03:26.750Z,0
2017-06-19T03:05:28.200Z,0
2017-06-19T03:07:29.645Z,0
2017-06-19T03:09:31.125Z,0
2017-06-19T03:11:32.572Z,0
2017-06-19T03:13:34.050Z,0
2017-06-19T03:15:35.496Z,0
2017-06-19T03:17:36.949Z,0
2017-06-19T03:19:38.419Z,0
2017-06-19T03:21:39.868Z,0
2017-06-19T03:23:41.314Z,0
2017-06-19T03:25:42.791Z,5
2017-06-19T03:27:44.235Z,5
2017-06-19T03:29:45.679Z,5
2017-06-19T03:31:47.146Z,5
2017-06-19T03:33:48.606Z,5
2017-06-19T03:35:50.086Z,5
2017-06-19T03:37:51.536Z,5
2017-06-19T03:39:52.992Z,10
2017-06-19T03:41:54.462Z,10
2017-06-19T03:43:55.915Z,10
2017-06-19T03:45:57.387Z,10
2017-06-19T03:47:58.833Z,10
2017-06-19T03:50:00.283Z,15
2017-06-19T03:52:01.760Z,15
2017-06-19T03:54:03.209Z,15
2017-06-19T03:56:04.656Z,15
2017-06-19T03:58:06.131Z,15
2017-06-19T04:00:07.579Z,15
2017-06-19T04:02:09.044Z,20
2017-06-19T04:04:10.515Z,20
2017-06-19T04:06:12.012Z,20
2017-06-19T04:08:13.486Z,20
2017-06-19T04:10:14.974Z,20
2017-06-19T04:12:16.420Z,25
2017-06-19T04:14:20.636Z,25
2017-06-19T04:16:22.094Z,25
2017-06-19T04:18:23.560Z,25
2017-06-19T04:20:25.033Z,25
2017-06-19T04:22:26.483Z,30
2017-06-19T04:24:27.934Z,30
2017-06-19T04:26:29.408Z,30
2017-06-19T04:28:30.855Z,30
2017-06-19T04:30:32.327Z,30
2017-06-19T04:32:33.778Z,35
2017-06-19T04:34:35.335Z,35
2017-06-19T04:36:36.809Z,35
2017-06-19T04:38:38.255Z,35
2017-06-19T04:40:39.733Z,35
2017-06-19T04:42:41.181Z,40
2017-06-19T04:44:42.631Z,40
2017-06-19T04:46:44.111Z,40
2017-06-19T04:48:45.575Z,40
2017-06-19T04:50:47.061Z,40
2017-06-19T04:52:48.534Z,40
2017-06-19T04:54:49.982Z,45
2017-06-19T04:56:51.429Z,45
2017-06-19T04:58:52.899Z,45
2017-06-19T05:00:54.345Z,45
2017-06-19T05:02:55.867Z,45
2017-06-19T05:04:57.326Z,45
2017-06-19T05:06:58.776Z,50
2017-06-19T05:09:00.244Z,50
2017-06-19T05:11:01.694Z,50
2017-06-19T05:13:03.146Z,50
2017-06-19T05:15:04.629Z,50
2017-06-19T05:17:06.091Z,50
2017-06-19T05:19:07.546Z,55
2017-06-19T05:21:09.014Z,55
2017-06-19T05:23:10.475Z,55
2017-06-19T05:25:11.946Z,55
2017-06-19T05:27:13.413Z,55
2017-06-19T05:29:14.879Z,55
2017-06-19T05:31:16.352Z,55
2017-06-19T05:33:17.802Z,60
2017-06-19T05:35:19.285Z,60
2017-06-19T05:37:20.734Z,60
2017-06-19T05:39:22.187Z,60
2017-06-19T05:41:23.664Z,60
2017-06-19T05:43:25.113Z,60
2017-06-19T05:45:26.568Z,65
2017-06-19T05:47:28.051Z,65
2017-06-19T05:49:29.499Z,65
2017-06-19T05:51:30.995Z,65
2017-06-19T05:53:32.474Z,70
2017-06-19T05:55:33.937Z,70
2017-06-19T05:57:35.449Z,70
2017-06-19T05:59:36.904Z,70
2017-06-19T06:01:38.357Z,70
2017-06-19T06:03:39.831Z,70
2017-06-19T06:05:41.283Z,75
2017-06-19T06:07:42.757Z,75
2017-06-19T06:09:44.210Z,75
2017-06-19T06:11:45.662Z,75
2017-06-19T06:13:47.139Z,75
2017-06-19T06:15:48.598Z,75
2017-06-19T06:17:50.050Z,80
2017-06-19T06:19:51.523Z,80
2017-06-19T06:21:52.968Z,80
2017-06-19T06:23:54.442Z,80
2017-06-19T06:25:55.894Z,80
2017-06-19T06:27:57.348Z,80
2017-06-19T06:29:58.835Z,85
2017-06-19T06:32:00.290Z,85
2017-06-19T06:34:01.769Z,85
2017-06-19T06:36:03.216Z,85
2017-06-19T06:38:04.671Z,85
2017-06-19T06:40:06.150Z,85
2017-06-19T06:42:07.598Z,85
2017-06-19T06:44:09.065Z,85
2017-06-19T06:46:10.543Z,85
2017-06-19T06:48:11.991Z,85
2017-06-19T06:50:13.440Z,85
2017-06-19T06:52:14.912Z,85
2017-06-19T06:54:16.395Z,85
2017-06-19T06:56:17.878Z,85
2017-06-19T06:58:19.328Z,85
2017-06-19T07:00:20.777Z,90
2017-06-19T07:02:22.249Z,90
2017-06-19T07:04:23.697Z,90
2017-06-19T07:06:25.176Z,90
2017-06-19T07:08:26.622Z,90
2017-06-19T07:10:28.072Z,90
2017-06-19T07:12:29.547Z,90
2017-06-19T07:14:30.994Z,90
2017-06-19T07:16:32.446Z,90
2017-06-19T07:18:33.920Z,90
2017-06-19T07:20:35.366Z,90
2017-06-19T07:22:36.818Z,95
2017-06-19T07:24:38.294Z,95
2017-06-19T07:26:39.742Z,95
2017-06-19T07:28:41.212Z,95
2017-06-19T07:30:42.663Z,95
2017-06-19T07:32:44.116Z,95
2017-06-19T07:34:45.588Z,95
2017-06-19T07:36:47.050Z,95
2017-06-19T07:38:48.500Z,95
2017-06-19T07:40:49.979Z,95
2017-06-19T07:42:51.437Z,95
2017-06-19T07:44:52.930Z,95
2017-06-19T07:46:54.380Z,95
2017-06-19T07:48:55.827Z,95
2017-06-19T07:50:57.303Z,100
2017-06-19T07:52:58.758Z,100
2017-06-19T07:55:00.223Z,100
2017-06-19T07:57:01.698Z,100
2017-06-19T07:59:03.158Z,100
2017-06-19T08:01:04.653Z,100
2017-06-19T08:03:06.103Z,100
2017-06-19T08:05:07.555Z,100
2017-06-19T08:07:09.038Z,100
2017-06-19T08:09:10.500Z,100
2017-06-19T08:11:11.945Z,100
2017-06-19T08:13:13.423Z,100
2017-06-19T08:15:14.867Z,100
2017-06-19T08:17:16.355Z,100
2017-06-19T08:19:17.808Z,100
2017-06-19T08:21:19.258Z,100
2017-06-19T08:23:20.734Z,100
2017-06-19T08:25:22.186Z,100
2017-06-19T08:27:23.678Z,100
2017-06-19T08:29:25.132Z,100
2017-06-19T08:31:26.583Z,100
2017-06-19T08:33:28.060Z,100
2017-06-19T08:35:29.515Z,100
2017-06-19T08:37:30.984Z,100
2017-06-19T08:39:32.459Z,100
2017-06-19T08:41:33.909Z,100
2017-06-19T08:43:35.386Z,100
2017-06-19T08:45:36.838Z,100
2017-06-19T08:47:38.287Z,100
2017-06-19T08:49:39.767Z,100
2017-06-19T08:51:41.220Z,105
2017-06-19T08:53:42.699Z,100
2017-06-19T08:55:44.149Z,100
2017-06-19T08:57:45.599Z,100
2017-06-19T08:59:47.081Z,100
2017-06-19T09:01:48.538Z,100
2017-06-19T09:03:49.994Z,100
2017-06-19T09:05:51.471Z,100
2017-06-19T09:07:52.923Z,100
2017-06-19T09:09:54.399Z,100
2017-06-19T09:11:55.853Z,100
2017-06-19T09:13:57.304Z,100
2017-06-19T09:15:58.785Z,100
2017-06-19T09:18:00.246Z,100
2017-06-19T09:20:01.726Z,100
2017-06-19T09:22:03.203Z,100
2017-06-19T09:24:04.660Z,100
2017-06-19T09:26:06.140Z,100
2017-06-19T09:28:07.586Z,100
2017-06-19T09:30:09.038Z,100
2017-06-19T09:32:10.536Z,100
2017-06-19T09:34:11.996Z,100
2017-06-19T09:36:13.443Z,100
2017-06-19T09:38:14.931Z,100
2017-06-19T09:40:16.378Z,100
2017-06-19T09:42:17.868Z,100
2017-06-19T09:44:19.323Z,100
2017-06-19T09:46:20.776Z,100
2017-06-19T09:48:22.252Z,100
2017-06-19T09:50:23.725Z,100
2017-06-19T09:52:25.190Z,100
2017-06-19T09:54:26.678Z,100
2017-06-19T09:56:28.127Z,100
2017-06-19T09:58:29.613Z,100
2017-06-19T10:00:31.065Z,95
2017-06-19T10:02:32.559Z,100
2017-06-19T10:04:34.039Z,100
2017-06-19T10:06:35.488Z,100
2017-06-19T10:08:36.969Z,100
2017-06-19T10:10:38.420Z,100
2017-06-19T10:12:39.870Z,100
2017-06-19T10:14:41.427Z,100
2017-06-19T10:16:42.879Z,100
2017-06-19T10:18:44.340Z,100
2017-06-19T10:20:46.465Z,100
2017-06-19T10:22:47.914Z,95
2017-06-19T10:24:49.388Z,95
2017-06-19T10:26:50.839Z,95
2017-06-19T10:28:52.310Z,95
2017-06-19T10:30:53.796Z,95
2017-06-19T10:32:55.251Z,95
2017-06-19T10:34:56.728Z,95
2017-06-19T10:36:58.186Z,95
2017-06-19T10:38:59.640Z,95
2017-06-19T10:41:01.140Z,95
2017-06-19T10:43:02.601Z,95
2017-06-19T10:45:04.057Z,95
2017-06-19T10:47:05.532Z,95
2017-06-19T10:49:06.981Z,95
2017-06-19T10:51:08.453Z,95
2017-06-19T10:53:09.904Z,95
2017-06-19T10:55:11.356Z,95
2017-06-19T10:57:12.840Z,95
2017-06-19T10:59:14.301Z,95
2017-06-19T11:01:15.791Z,95
2017-06-19T11:03:17.239Z,95
2017-06-19T11:05:18.695Z,95
2017-06-19T11:07:20.173Z,95
2017-06-19T11:09:21.626Z,95
2017-06-19T11:11:23.083Z,95
2017-06-19T11:13:24.560Z,95
2017-06-19T11:15:26.010Z,95
2017-06-19T11:17:27.481Z,95
2017-06-19T11:19:28.946Z,95
2017-06-19T11:21:30.401Z,95
2017-06-19T11:23:31.910Z,95
2017-06-19T11:25:33.368Z,95
2017-06-19T11:27:34.863Z,95
2017-06-19T11:29:36.318Z,95
2017-06-19T11:31:37.772Z,95
2017-06-19T11:33:39.248Z,95
2017-06-19T11:35:40.701Z,95
2017-06-19T11:37:42.149Z,95
2017-06-19T11:39:43.632Z,95
2017-06-19T11:41:45.116Z,95
2017-06-19T11:43:46.592Z,95
2017-06-19T11:45:48.058Z,95
2017-06-19T11:47:49.497Z,95
2017-06-19T11:49:50.971Z,95
2017-06-19T11:51:52.420Z,95
2017-06-19T11:53:53.900Z,95
2017-06-19T11:55:55.353Z,95
2017-06-19T11:57:56.800Z,95
2017-06-19T11:59:58.277Z,95
2017-06-19T12:01:59.730Z,95
2017-06-19T12:04:01.210Z,95
2017-06-19T12:06:02.667Z,95
2017-06-19T12:08:04.120Z,95
2017-06-19T12:10:05.597Z,95
2017-06-19T12:12:07.046Z,95
2017-06-19T12:14:08.498Z,95
2017-06-19T12:16:09.971Z,95
2017-06-19T12:18:11.425Z,95
2017-06-19T12:20:12.880Z,95
2017-06-19T12:22:14.354Z,95
2017-06-19T12:24:15.805Z,95
2017-06-19T12:26:17.276Z,95
2017-06-19T12:28:18.726Z,95
2017-06-19T12:30:20.175Z,95
2017-06-19T12:32:21.658Z,95
2017-06-19T12:34:23.107Z,95
2017-06-19T12:36:24.590Z,95
2017-06-19T12:38:26.049Z,100
2017-06-19T12:40:27.505Z,100
2017-06-19T12:42:28.977Z,95
2017-06-19T12:44:30.432Z,95
2017-06-19T12:46:31.886Z,100
2017-06-19T12:48:33.363Z,100
2017-06-19T12:50:34.825Z,100
2017-06-19T12:52:36.301Z,100
2017-06-19T12:54:37.750Z,100
2017-06-19T12:56:39.199Z,100
2017-06-19T12:58:40.671Z,100
2017-06-19T13:00:42.123Z,100
2017-06-19T13:02:43.608Z,100
2017-06-19T13:04:45.060Z,100
2017-06-19T13:06:46.520Z,100
2017-06-19T13:08:47.995Z,100
2017-06-19T13:10:49.445Z,100
2017-06-19T13:12:50.900Z,100
2017-06-19T13:14:52.377Z,100
2017-06-19T13:16:53.832Z,100
2017-06-19T13:18:55.302Z,100
2017-06-19T13:20:56.783Z,100
2017-06-19T13:22:58.233Z,100
2017-06-19T13:24:59.718Z,100
2017-06-19T13:27:01.189Z,100
2017-06-19T13:29:02.641Z,100
2017-06-19T13:31:04.122Z,100
2017-06-19T13:33:05.578Z,100
2017-06-19T13:35:07.036Z,100
2017-06-19T13:37:08.513Z,100
2017-06-19T13:39:09.961Z,100
2017-06-19T13:41:11.455Z,100
2017-06-19T13:43:12.904Z,100
2017-06-19T13:45:14.361Z,100
2017-06-19T13:47:15.848Z,100
2017-06-19T13:49:17.304Z,100
2017-06-19T13:51:18.755Z,100
2017-06-19T13:53:20.251Z,100
2017-06-19T13:55:21.705Z,100
2017-06-19T13:57:23.183Z,100
2017-06-19T13:59:24.640Z,100
2017-06-19T14:01:26.106Z,100
2017-06-19T14:03:27.642Z,100
2017-06-19T14:05:29.093Z,100
2017-06-19T14:07:30.550Z,105
2017-06-19T14:09:32.029Z,105
2017-06-19T14:11:33.489Z,105
2017-06-19T14:13:34.966Z,105
2017-06-19T14:15:36.421Z,105
2017-06-19T14:17:37.875Z,105
2017-06-19T14:19:39.351Z,105
2017-06-19T14:21:40.802Z,105
2017-06-19T14:23:42.296Z,105
2017-06-19T14:25:43.753Z,105
2017-06-19T14:27:45.205Z,105
2017-06-19T14:29:46.689Z,105
2017-06-19T14:31:48.142Z,105
2017-06-19T14:33:49.605Z,105
2017-06-19T14:35:51.084Z,105
2017-06-19T14:37:52.545Z,105
2017-06-19T14:39:54.022Z,105
2017-06-19T14:41:55.476Z,105
2017-06-19T14:43:57.122Z,105
2017-06-19T14:45:58.610Z,105
2017-06-19T14:48:00.061Z,105
2017-06-19T14:50:03.555Z,105
2017-06-19T14:52:05.037Z,110
2017-06-19T14:54:07.964Z,110
2017-06-19T14:56:09.416Z,110
2017-06-19T14:58:10.873Z,110
2017-06-19T15:00:12.492Z,110
2017-06-19T15:02:13.985Z,110
2017-06-19T15:04:15.672Z,110
2017-06-19T15:06:17.157Z,110
2017-06-19T15:08:19.060Z,110
2017-06-19T15:10:21.323Z,110
2017-06-19T15:12:22.803Z,110
2017-06-19T15:14:24.306Z,110
2017-06-19T15:16:26.670Z,110
2017-06-19T15:18:28.375Z,110
2017-06-19T15:20:29.850Z,110
2017-06-19T15:22:33.177Z,110
2017-06-19T15:24:34.632Z,115
2017-06-19T15:26:39.224Z,115
2017-06-19T15:28:40.683Z,115
2017-06-19T15:30:42.133Z,115
2017-06-19T15:32:43.759Z,115
2017-06-19T15:34:45.232Z,115
2017-06-19T15:36:46.694Z,115
2017-06-19T15:38:48.170Z,115
2017-06-19T15:40:49.727Z,115
2017-06-19T15:42:51.180Z,115
2017-06-19T15:44:52.657Z,115
2017-06-19T15:46:54.158Z,115
2017-06-19T15:48:55.673Z,115
2017-06-19T15:50:57.240Z,120
2017-06-19T15:52:58.864Z,120
2017-06-19T15:55:04.776Z,120
2017-06-19T15:57:06.164Z,120
2017-06-19T15:59:07.717Z,120
2017-06-19T16:01:11.483Z,120
2017-06-19T16:03:15.593Z,120
2017-06-19T16:05:17.024Z,120
2017-06-19T16:07:18.482Z,120
2017-06-19T16:09:20.036Z,120
2017-06-19T16:11:21.520Z,120
2017-06-19T16:13:23.041Z,120
2017-06-19T16:15:24.513Z,125
2017-06-19T16:17:25.969Z,125
2017-06-19T16:19:27.459Z,125
2017-06-19T16:21:28.943Z,125
2017-06-19T16:23:30.417Z,125
2017-06-19T16:25:36.278Z,125
2017-06-19T16:27:38.108Z,125
2017-06-19T16:29:40.476Z,125
2017-06-19T16:31:43.675Z,125
2017-06-19T16:33:46.147Z,125
2017-06-19T16:35:51.577Z,125
2017-06-19T16:37:52.995Z,125
2017-06-19T16:39:54.455Z,125
2017-06-19T16:41:58.116Z,130
2017-06-19T16:43:59.848Z,130
2017-06-19T16:46:01.301Z,130
2017-06-19T16:48:02.811Z,130
2017-06-19T16:50:04.268Z,130
2017-06-19T16:52:05.724Z,130
2017-06-19T16:54:07.206Z,130
2017-06-19T16:56:08.660Z,130
2017-06-19T16:58:10.140Z,130
2017-06-19T17:00:11.596Z,130
2017-06-19T17:02:13.047Z,130
2017-06-19T17:04:14.593Z,135
2017-06-19T17:06:16.053Z,135
2017-06-19T17:08:17.546Z,135
2017-06-19T17:10:19.023Z,135
2017-06-19T17:12:20.499Z,135
2017-06-19T17:14:21.981Z,135
2017-06-19T17:16:23.433Z,135
2017-06-19T17:18:24.890Z,135
2017-06-19T17:20:26.373Z,135
2017-06-19T17:22:27.842Z,135
2017-06-19T17:24:29.321Z,140
2017-06-19T17:26:30.777Z,135
2017-06-19T17:28:32.231Z,135
2017-06-19T17:30:33.751Z,130
2017-06-19T17:32:35.214Z,130
2017-06-19T17:34:36.677Z,130
2017-06-19T17:36:38.176Z,135
2017-06-19T17:38:39.631Z,135
2017-06-19T17:40:41.107Z,135
2017-06-19T17:42:42.574Z,135
2017-06-19T17:44:44.027Z,140
2017-06-19T17:46:45.510Z,140
2017-06-19T17:48:46.981Z,140
2017-06-19T17:50:48.523Z,140
2017-06-19T17:52:50.035Z,145
2017-06-19T17:54:51.495Z,140
2017-06-19T17:56:52.977Z,140
2017-06-19T17:58:54.429Z,140
2017-06-19T18:00:55.889Z,140
2017-06-19T18:02:57.377Z,145
2017-06-19T18:04:58.887Z,140
2017-06-19T18:07:00.393Z,140
2017-06-19T18:09:02.074Z,140
2017-06-19T18:11:03.529Z,140
2017-06-19T18:13:05.063Z,135
2017-06-19T18:15:06.584Z,130
2017-06-19T18:17:08.057Z,130
2017-06-19T18:19:09.540Z,130
2017-06-19T18:21:10.999Z,130
2017-06-19T18:23:13.779Z,120
2017-06-19T18:25:15.238Z,115
2017-06-19T18:27:16.697Z,115
2017-06-19T18:29:18.175Z,115
2017-06-19T18:31:19.634Z,115
2017-06-19T18:33:21.093Z,105
2017-06-19T18:35:22.672Z,105
2017-06-19T18:37:24.126Z,100
2017-06-19T18:39:25.579Z,100
2017-06-19T18:41:27.061Z,110
2017-06-19T18:43:28.663Z,155
2017-06-19T18:45:30.145Z,190
2017-06-19T18:47:31.605Z,185
2017-06-19T18:49:33.342Z,185
2017-06-19T18:51:34.880Z,115
2017-06-19T18:53:37.653Z,130
2017-06-19T18:55:39.135Z,120
2017-06-19T18:57:40.613Z,80
2017-06-19T18:59:42.072Z,70
2017-06-19T19:01:44.122Z,65
2017-06-19T19:03:45.571Z,65
2017-06-19T19:05:47.046Z,60
2017-06-19T19:07:48.630Z,60
2017-06-19T19:09:50.097Z,55
2017-06-19T19:11:51.755Z,55
2017-06-19T19:13:53.211Z,55
2017-06-19T19:15:54.663Z,50
2017-06-19T19:17:56.139Z,50
2017-06-19T19:19:57.588Z,45
2017-06-19T19:21:59.076Z,35
2017-06-19T19:24:00.533Z,35
2017-06-19T19:26:02.003Z,30
2017-06-19T19:28:03.538Z,45
2017-06-19T19:30:04.999Z,30
2017-06-19T19:32:06.456Z,25
2017-06-19T19:34:07.995Z,20
2017-06-19T19:36:09.444Z,15
2017-06-19T19:38:10.921Z,15
2017-06-19T19:40:12.397Z,10
2017-06-19T19:42:13.861Z,10
2017-06-19T19:44:15.362Z,10
2017-06-19T19:46:16.808Z,5
2017-06-19T19:48:18.254Z,5
2017-06-19T19:50:19.732Z,5
2017-06-19T19:52:21.184Z,5
2017-06-19T19:54:22.632Z,0
2017-06-19T19:56:24.194Z,0
2017-06-19T19:58:25.658Z,0
2017-06-19T20:00:27.153Z,0
2017-06-19T20:02:28.627Z,0
2017-06-19T20:04:30.079Z,0
2017-06-19T20:06:31.553Z,0
2017-06-19T20:08:33.012Z,0
2017-06-19T20:10:34.528Z,0
2017-06-19T20:12:36.005Z,0
2017-06-19T20:14:37.461Z,0
2017-06-19T20:16:38.929Z,0
2017-06-19T20:18:40.401Z,0
2017-06-19T20:20:41.867Z,0
2017-06-19T20:22:44.992Z,0
2017-06-19T20:24:46.445Z,0
2017-06-19T20:26:48.144Z,0
2017-06-19T20:28:49.614Z,0
2017-06-19T20:30:51.061Z,0
2017-06-19T20:32:52.918Z,0
2017-06-19T20:34:54.363Z,0
2017-06-19T20:36:59.009Z,0
2017-06-19T20:39:02.385Z,0
2017-06-19T20:41:04.122Z,0
2017-06-19T20:43:05.698Z,0
2017-06-19T20:45:07.199Z,0
2017-06-19T20:47:08.644Z,0
2017-06-19T20:49:10.118Z,0
2017-06-19T20:51:11.563Z,0
2017-06-19T20:53:13.007Z,0
2017-06-19T20:55:14.479Z,0
2017-06-19T20:57:15.941Z,0
2017-06-19T20:59:17.443Z,0
2017-06-19T21:01:18.951Z,0
2017-06-19T21:03:20.416Z,0
2017-06-19T21:05:22.673Z,0
2017-06-19T21:07:24.156Z,0
2017-06-19T21:09:26.369Z,0
2017-06-19T21:11:28.775Z,0
2017-06-19T21:13:30.300Z,0
2017-06-19T21:15:31.771Z,0
2017-06-19T21:17:33.217Z,0
2017-06-19T21:19:34.692Z,0
2017-06-19T21:21:36.166Z,0
2017-06-19T21:23:37.617Z,0
2017-06-19T21:25:39.086Z,0
2017-06-19T21:27:40.530Z,0
2017-06-19T21:29:41.977Z,0
2017-06-19T21:31:43.451Z,0
2017-06-19T21:33:44.899Z,0
2017-06-19T21:35:46.349Z,0
2017-06-19T21:37:47.825Z,0
2017-06-19T21:39:49.271Z,0
2017-06-19T21:41:50.745Z,0
2017-06-19T21:43:52.190Z,0
2017-06-19T21:45:53.640Z,0
2017-06-19T21:47:55.114Z,0
2017-06-19T21:49:56.563Z,0
2017-06-19T21:51:58.009Z,0
2017-06-19T21:53:59.491Z,0
2017-06-19T21:56:00.935Z,0
2017-06-19T21:58:02.409Z,0
2017-06-19T22:00:03.860Z,0
2017-06-19T22:02:05.305Z,0
2017-06-19T22:04:06.777Z,0
2017-06-19T22:06:08.222Z,0
2017-06-19T22:08:09.702Z,0
2017-06-19T22:10:11.149Z,0
2017-06-19T22:12:12.602Z,0
2017-06-19T22:14:14.084Z,0
2017-06-19T22:16:15.529Z,0
2017-06-19T22:18:16.981Z,0
2017-06-19T22:20:18.450Z,0
2017-06-19T22:22:19.897Z,0
2017-06-19T22:24:21.378Z,0
2017-06-19T22:26:22.827Z,0
2017-06-19T22:28:24.276Z,0
2017-06-19T22:30:25.752Z,0
2017-06-19T22:32:27.201Z,0
2017-06-19T22:34:28.650Z,0
2017-06-19T22:36:30.117Z,0
2017-06-19T22:38:31.561Z,0
2017-06-19T22:40:33.037Z,0
2017-06-19T22:42:34.480Z,0
2017-06-19T22:44:35.929Z,0
2017-06-19T22:46:37.400Z,0
2017-06-19T22:48:38.848Z,0
2017-06-19T22:50:40.290Z,0
2017-06-19T22:52:41.758Z,0
2017-06-19T22:54:43.204Z,0
2017-06-19T22:56:44.681Z,0
2017-06-19T22:58:46.127Z,0
2017-06-19T23:00:47.574Z,0
2017-06-19T23:02:49.134Z,0
2017-06-19T23:04:50.583Z,0
2017-06-19T23:06:52.034Z,0
2017-06-19T23:08:53.512Z,0
2017-06-19T23:10:54.960Z,0
2017-06-19T23:12:56.408Z,0
2017-06-19T23:14:57.887Z,0
2017-06-19T23:16:59.374Z,0
2017-06-19T23:19:00.847Z,0
2017-06-19T23:21:02.292Z,0
2017-06-19T23:23:03.743Z,0
2017-06-19T23:25:05.227Z,0
2017-06-19T23:27:06.677Z,0
2017-06-19T23:29:08.153Z,0
2017-06-19T23:31:09.601Z,0
2017-06-19T23:33:11.046Z,0
2017-06-19T23:35:12.518Z,0
2017-06-19T23:37:13.967Z,0
2017-06-19T23:39:15.419Z,0
2017-06-19T23:41:16.895Z,0
2017-06-19T23:43:18.348Z,0
2017-06-19T23:45:19.819Z,0
2017-06-19T23:47:21.266Z,0
2017-06-19T23:49:22.717Z,0
2017-06-19T23:51:24.196Z,0
2017-06-19T23:53:25.646Z,0
2017-06-19T23:55:27.097Z,0
2017-06-19T23:57:28.573Z,0
2017-06-19T23:59:30.020Z,0
